createdAt,value
2023-09-08T00:01:05.313Z,25.45
2023-09-08T00:03:33.139Z,25.31
2023-09-08T00:06:01.147Z,25.20
2023-09-08T00:08:28.942Z,25.11
2023-09-08T00:10:57.627Z,24.99
2023-09-08T00:13:25.475Z,24.98
2023-09-08T00:15:53.232Z,24.95
2023-09-08T00:18:21.841Z,24.98
2023-09-08T00:20:49.668Z,24.98
2023-09-08T00:23:17.398Z,24.93
2023-09-08T00:25:45.166Z,24.95
2023-09-08T00:28:12.975Z,24.95
2023-09-08T00:30:40.691Z,24.94
2023-09-08T00:33:10.112Z,24.91
2023-09-08T00:35:38.060Z,24.93
2023-09-08T00:38:05.921Z,24.88
2023-09-08T00:40:33.792Z,24.92
2023-09-08T00:43:01.598Z,24.94
2023-09-08T00:45:31.101Z,24.93
2023-09-08T00:47:59.910Z,24.87
2023-09-08T00:50:27.832Z,24.93
2023-09-08T00:52:55.785Z,24.90
2023-09-08T00:55:24.242Z,24.93
2023-09-08T00:57:52.191Z,24.92
2023-09-08T01:00:20.036Z,24.88
2023-09-08T01:02:47.973Z,24.80
2023-09-08T01:05:15.946Z,24.63
2023-09-08T01:07:45.132Z,24.62
2023-09-08T01:10:13.900Z,24.58
2023-09-08T01:12:41.703Z,24.52
2023-09-08T01:15:10.059Z,24.54
2023-09-08T01:17:37.943Z,24.51
2023-09-08T01:20:22.726Z,24.49
2023-09-08T01:23:11.767Z,24.49
2023-09-08T01:26:10.994Z,24.42
2023-09-08T01:28:41.817Z,24.41
2023-09-08T01:31:10.448Z,24.36
2023-09-08T01:33:38.837Z,24.40
2023-09-08T01:36:06.962Z,24.36
2023-09-08T01:38:35.110Z,24.36
2023-09-08T01:41:03.105Z,24.33
2023-09-08T01:43:30.954Z,24.23
2023-09-08T01:45:58.740Z,24.23
2023-09-08T01:48:26.564Z,24.25
2023-09-08T01:50:54.323Z,24.23
2023-09-08T01:53:22.129Z,24.19
2023-09-08T01:55:50.111Z,24.21
2023-09-08T01:58:17.866Z,24.17
2023-09-08T02:00:52.280Z,24.18
2023-09-08T02:03:20.084Z,24.14
2023-09-08T02:05:48.180Z,24.14
2023-09-08T02:08:16.063Z,24.13
2023-09-08T02:10:43.804Z,24.11
2023-09-08T02:13:11.604Z,24.14
2023-09-08T02:15:39.487Z,24.09
2023-09-08T02:18:08.576Z,24.09
2023-09-08T02:20:36.506Z,24.03
2023-09-08T02:23:08.195Z,24.04
2023-09-08T02:25:36.085Z,24.04
2023-09-08T02:28:04.238Z,24.03
2023-09-08T02:30:32.533Z,23.99
2023-09-08T02:33:05.212Z,23.97
2023-09-08T02:35:39.804Z,23.99
2023-09-08T02:38:08.250Z,23.97
2023-09-08T02:40:36.141Z,23.98
2023-09-08T02:43:06.089Z,23.96
2023-09-08T02:45:36.388Z,23.96
2023-09-08T02:48:05.490Z,23.97
2023-09-08T02:50:33.568Z,23.94
2023-09-08T02:53:01.409Z,23.97
2023-09-08T02:55:29.443Z,23.95
2023-09-08T02:57:57.795Z,23.95
2023-09-08T03:00:26.602Z,23.94
2023-09-08T03:02:54.459Z,23.91
2023-09-08T03:05:22.378Z,23.88
2023-09-08T03:07:50.561Z,23.82
2023-09-08T03:10:18.704Z,23.84
2023-09-08T03:12:46.505Z,23.85
2023-09-08T03:15:14.317Z,23.81
2023-09-08T03:17:42.155Z,23.72
2023-09-08T03:20:12.191Z,23.76
2023-09-08T03:22:40.258Z,23.72
2023-09-08T03:25:08.853Z,23.70
2023-09-08T03:27:36.639Z,23.67
2023-09-08T03:30:06.904Z,23.64
2023-09-08T03:32:35.460Z,23.61
2023-09-08T03:35:05.010Z,23.58
2023-09-08T03:37:32.934Z,23.55
2023-09-08T03:40:00.851Z,23.52
2023-09-08T03:42:28.799Z,23.50
2023-09-08T03:44:56.706Z,23.47
2023-09-08T03:47:25.843Z,23.44
2023-09-08T03:49:53.823Z,23.42
2023-09-08T03:52:21.669Z,23.39
2023-09-08T03:54:49.482Z,23.30
2023-09-08T03:57:17.259Z,23.33
2023-09-08T03:59:45.764Z,23.31
2023-09-08T04:02:13.616Z,23.26
2023-09-08T04:04:41.576Z,23.25
2023-09-08T04:07:10.016Z,23.23
2023-09-08T04:09:38.168Z,23.21
2023-09-08T04:12:06.750Z,23.19
2023-09-08T04:14:35.258Z,23.18
2023-09-08T04:17:03.351Z,23.17
2023-09-08T04:19:31.475Z,23.16
2023-09-08T04:21:59.261Z,23.13
2023-09-08T04:24:27.217Z,23.10
2023-09-08T04:26:54.980Z,23.02
2023-09-08T04:29:22.749Z,23.05
2023-09-08T04:31:50.514Z,23.00
2023-09-08T04:34:19.323Z,23.03
2023-09-08T04:36:47.289Z,23.01
2023-09-08T04:39:16.740Z,23.00
2023-09-08T04:41:44.997Z,22.97
2023-09-08T04:44:12.718Z,22.94
2023-09-08T04:46:40.491Z,22.94
2023-09-08T04:49:08.277Z,22.86
2023-09-08T04:51:36.524Z,22.89
2023-09-08T04:54:05.426Z,22.89
2023-09-08T04:56:33.340Z,22.88
2023-09-08T04:59:02.121Z,22.82
2023-09-08T05:01:33.970Z,22.86
2023-09-08T05:04:03.500Z,22.82
2023-09-08T05:06:32.020Z,22.78
2023-09-08T05:09:01.236Z,22.75
2023-09-08T05:11:30.459Z,22.72
2023-09-08T05:13:59.552Z,22.72
2023-09-08T05:16:38.409Z,22.66
2023-09-08T05:19:07.831Z,22.64
2023-09-08T05:21:40.177Z,22.68
2023-09-08T05:24:09.486Z,22.49
2023-09-08T05:26:39.798Z,22.60
2023-09-08T05:29:07.722Z,22.63
2023-09-08T05:31:35.590Z,22.60
2023-09-08T05:34:04.601Z,22.61
2023-09-08T05:36:33.590Z,22.61
2023-09-08T05:39:01.613Z,22.61
2023-09-08T05:41:29.763Z,22.60
2023-09-08T05:43:58.041Z,22.59
2023-09-08T05:46:29.137Z,22.62
2023-09-08T05:48:57.092Z,22.59
2023-09-08T05:51:25.062Z,22.56
2023-09-08T05:53:54.700Z,22.63
2023-09-08T05:56:26.139Z,22.66
2023-09-08T05:58:53.933Z,22.49
2023-09-08T06:01:22.980Z,22.60
2023-09-08T06:03:51.612Z,22.66
2023-09-08T06:06:19.661Z,22.67
2023-09-08T06:08:47.537Z,22.74
2023-09-08T06:11:15.992Z,22.72
2023-09-08T06:13:43.813Z,22.79
2023-09-08T06:16:11.887Z,22.84
2023-09-08T06:18:41.867Z,22.87
2023-09-08T06:21:13.412Z,22.94
2023-09-08T06:23:41.649Z,23.00
2023-09-08T06:26:09.565Z,23.02
2023-09-08T06:28:39.156Z,23.13
2023-09-08T06:31:07.229Z,23.19
2023-09-08T06:33:35.289Z,23.26
2023-09-08T06:36:03.138Z,23.31
2023-09-08T06:38:32.734Z,23.34
2023-09-08T06:41:02.138Z,23.43
2023-09-08T06:43:30.377Z,23.51
2023-09-08T06:46:04.441Z,23.56
2023-09-08T06:48:33.788Z,23.62
2023-09-08T06:51:02.044Z,23.68
2023-09-08T06:53:32.005Z,23.76
2023-09-08T06:56:00.049Z,23.81
2023-09-08T06:58:27.989Z,23.87
2023-09-08T07:00:56.262Z,23.91
2023-09-08T07:03:25.076Z,23.97
2023-09-08T07:05:53.684Z,23.99
2023-09-08T07:08:23.428Z,24.03
2023-09-08T07:10:55.021Z,24.14
2023-09-08T07:13:23.214Z,24.18
2023-09-08T07:15:50.995Z,24.24
2023-09-08T07:18:19.177Z,24.33
2023-09-08T07:20:50.483Z,24.39
2023-09-08T07:23:20.622Z,24.47
2023-09-08T07:25:50.151Z,24.56
2023-09-08T07:28:23.579Z,24.60
2023-09-08T07:30:52.249Z,24.67
2023-09-08T07:33:20.896Z,24.75
2023-09-08T07:35:49.327Z,24.80
2023-09-08T07:38:17.027Z,24.88
2023-09-08T07:40:44.822Z,24.94
2023-09-08T07:43:13.001Z,25.02
2023-09-08T07:45:41.639Z,25.10
2023-09-08T07:48:09.652Z,25.16
2023-09-08T07:50:37.980Z,25.24
2023-09-08T07:53:05.719Z,25.34
2023-09-08T07:55:33.493Z,25.39
2023-09-08T07:58:04.710Z,25.49
2023-09-08T08:00:32.830Z,25.50
2023-09-08T08:03:01.068Z,25.60
2023-09-08T08:05:29.082Z,25.72
2023-09-08T08:07:57.011Z,25.77
2023-09-08T08:10:24.820Z,25.80
2023-09-08T08:12:52.685Z,25.89
2023-09-08T08:15:25.141Z,25.95
2023-09-08T08:17:53.459Z,25.91
2023-09-08T08:20:22.313Z,26.08
2023-09-08T08:22:50.190Z,26.13
2023-09-08T08:25:18.143Z,26.17
2023-09-08T08:27:46.239Z,26.22
2023-09-08T08:30:14.588Z,26.27
2023-09-08T08:32:45.509Z,26.38
2023-09-08T08:35:13.594Z,26.44
2023-09-08T08:37:42.057Z,26.52
2023-09-08T08:40:13.718Z,26.59
2023-09-08T08:42:43.553Z,26.64
2023-09-08T08:45:13.265Z,26.69
2023-09-08T08:47:42.534Z,26.75
2023-09-08T08:50:12.214Z,26.81
2023-09-08T08:52:41.141Z,26.88
2023-09-08T08:55:09.451Z,26.92
2023-09-08T08:57:41.040Z,27.00
2023-09-08T09:00:14.261Z,27.08
2023-09-08T09:02:45.130Z,27.14
2023-09-08T09:05:15.738Z,27.21
2023-09-08T09:07:44.557Z,27.26
2023-09-08T09:10:12.616Z,27.30
2023-09-08T09:12:40.721Z,27.38
2023-09-08T09:15:12.886Z,27.45
2023-09-08T09:17:40.838Z,27.49
2023-09-08T09:20:21.440Z,27.60
2023-09-08T09:22:50.284Z,27.60
2023-09-08T09:25:29.422Z,27.72
2023-09-08T09:28:03.636Z,27.75
2023-09-08T09:30:49.842Z,27.82
2023-09-08T09:33:18.301Z,27.86
2023-09-08T09:35:52.709Z,27.90
2023-09-08T09:38:22.368Z,27.99
2023-09-08T09:40:50.626Z,28.06
2023-09-08T09:43:22.555Z,28.12
2023-09-08T09:45:50.619Z,28.16
2023-09-08T09:48:22.560Z,28.23
2023-09-08T09:50:50.481Z,28.25
2023-09-08T09:53:21.574Z,28.35
2023-09-08T09:55:49.356Z,28.21
2023-09-08T09:58:17.273Z,28.29
2023-09-08T10:00:49.742Z,28.45
2023-09-08T10:03:19.678Z,28.53
2023-09-08T10:05:49.496Z,28.59
2023-09-08T10:08:18.038Z,28.64
2023-09-08T10:10:48.724Z,28.65
2023-09-08T10:13:24.331Z,28.71
2023-09-08T10:15:56.059Z,28.77
2023-09-08T10:18:25.640Z,28.82
2023-09-08T10:20:56.887Z,28.87
2023-09-08T10:23:41.714Z,28.94
2023-09-08T10:26:12.906Z,28.98
2023-09-08T10:28:40.688Z,29.02
2023-09-08T10:31:12.751Z,29.08
2023-09-08T10:33:43.322Z,29.11
2023-09-08T10:36:12.232Z,29.19
2023-09-08T10:38:40.010Z,29.20
2023-09-08T10:41:16.766Z,29.30
2023-09-08T10:43:58.352Z,29.31
2023-09-08T10:46:29.236Z,29.35
2023-09-08T10:49:08.099Z,29.37
2023-09-08T10:51:36.860Z,29.37
2023-09-08T10:54:05.252Z,29.42
2023-09-08T10:57:01.259Z,29.49
2023-09-08T10:59:36.622Z,29.51
2023-09-08T11:02:07.680Z,29.57
2023-09-08T11:04:36.890Z,29.43
2023-09-08T11:07:04.780Z,29.55
2023-09-08T11:09:37.786Z,29.67
2023-09-08T11:12:09.280Z,29.70
2023-09-08T11:14:37.296Z,29.73
2023-09-08T11:17:05.233Z,29.73
2023-09-08T11:19:50.859Z,29.82
2023-09-08T11:22:33.702Z,29.85
2023-09-08T11:25:07.385Z,29.87
2023-09-08T11:27:40.355Z,29.92
2023-09-08T11:30:10.074Z,29.95
2023-09-08T11:32:38.104Z,29.98
2023-09-08T11:35:14.619Z,30.05
2023-09-08T11:37:42.658Z,30.08
2023-09-08T11:40:15.240Z,30.09
2023-09-08T11:42:45.993Z,30.14
2023-09-08T11:45:15.770Z,30.05
2023-09-08T11:47:45.130Z,30.18
2023-09-08T11:50:16.697Z,30.29
2023-09-08T11:52:50.379Z,30.36
2023-09-08T11:55:20.144Z,30.38
2023-09-08T11:57:58.244Z,30.44
2023-09-08T12:00:27.509Z,30.48
2023-09-08T12:02:56.036Z,30.48
2023-09-08T12:05:28.776Z,30.54
2023-09-08T12:07:58.993Z,30.54
2023-09-08T12:10:27.215Z,30.52
2023-09-08T12:13:02.306Z,30.60
2023-09-08T12:15:35.372Z,30.65
2023-09-08T12:18:06.780Z,30.69
2023-09-08T12:20:35.653Z,30.70
2023-09-08T12:23:19.229Z,30.75
2023-09-08T12:25:52.842Z,30.77
2023-09-08T12:28:22.785Z,30.81
2023-09-08T12:30:54.915Z,30.87
2023-09-08T12:33:22.814Z,30.88
2023-09-08T12:35:53.658Z,30.93
2023-09-08T12:38:21.476Z,30.91
2023-09-08T12:40:49.527Z,30.96
2023-09-08T12:43:27.498Z,31.03
2023-09-08T12:45:57.464Z,31.05
2023-09-08T12:48:26.190Z,31.08
2023-09-08T12:50:54.117Z,31.09
2023-09-08T12:53:24.312Z,31.13
2023-09-08T12:55:52.451Z,31.14
2023-09-08T12:58:20.542Z,31.17
2023-09-08T13:00:48.246Z,31.21
2023-09-08T13:03:23.915Z,31.27
2023-09-08T13:05:56.185Z,31.27
2023-09-08T13:08:26.817Z,31.29
2023-09-08T13:10:54.651Z,31.32
2023-09-08T13:13:22.497Z,31.35
2023-09-08T13:15:50.818Z,31.38
2023-09-08T13:18:18.737Z,31.37
2023-09-08T13:20:46.678Z,31.44
2023-09-08T13:23:14.473Z,31.46
2023-09-08T13:25:43.000Z,31.46
2023-09-08T13:28:10.788Z,31.51
2023-09-08T13:30:38.565Z,31.54
2023-09-08T13:33:06.597Z,31.55
2023-09-08T13:35:34.422Z,31.59
2023-09-08T13:38:04.081Z,31.60
2023-09-08T13:40:32.267Z,31.64
2023-09-08T13:43:01.426Z,31.58
2023-09-08T13:45:29.594Z,31.65
2023-09-08T13:47:57.474Z,31.68
2023-09-08T13:50:27.611Z,31.71
2023-09-08T13:52:56.204Z,31.71
2023-09-08T13:57:59.590Z,31.65
2023-09-08T14:00:31.572Z,31.71
2023-09-08T14:03:05.316Z,31.62
2023-09-08T14:05:36.951Z,31.73
2023-09-08T14:08:16.578Z,31.78
2023-09-08T14:13:17.376Z,31.86
2023-09-08T14:15:45.205Z,31.90
2023-09-08T14:18:15.051Z,31.87
2023-09-08T14:20:43.940Z,31.95
2023-09-08T14:23:12.035Z,31.98
2023-09-08T14:25:39.885Z,32.00
2023-09-08T14:28:07.779Z,32.01
2023-09-08T14:30:36.663Z,32.03
2023-09-08T14:33:05.028Z,32.02
2023-09-08T14:35:32.852Z,32.02
2023-09-08T14:38:00.784Z,32.04
2023-09-08T14:40:28.852Z,32.05
2023-09-08T14:42:56.807Z,31.99
2023-09-08T14:45:24.567Z,32.04
2023-09-08T14:47:52.329Z,32.07
2023-09-08T14:50:20.819Z,32.09
2023-09-08T14:52:48.629Z,32.09
2023-09-08T14:55:16.468Z,32.09
2023-09-08T14:57:44.432Z,32.09
2023-09-08T15:00:13.154Z,32.11
2023-09-08T15:02:40.977Z,32.13
2023-09-08T15:05:09.730Z,32.13
2023-09-08T15:07:37.498Z,32.16
2023-09-08T15:10:05.752Z,32.12
2023-09-08T15:12:33.761Z,32.16
2023-09-08T15:15:01.578Z,32.18
2023-09-08T15:17:29.376Z,32.18
2023-09-08T15:19:57.210Z,32.14
2023-09-08T15:22:25.318Z,32.21
2023-09-08T15:24:53.076Z,32.21
2023-09-08T15:27:20.884Z,32.22
2023-09-08T15:29:48.681Z,32.22
2023-09-08T15:32:16.454Z,32.23
2023-09-08T15:34:47.954Z,32.22
2023-09-08T15:37:15.716Z,32.24
2023-09-08T15:39:43.854Z,32.24
2023-09-08T15:42:15.183Z,32.21
2023-09-08T15:44:43.170Z,32.25
2023-09-08T15:47:10.932Z,32.26
2023-09-08T15:49:38.662Z,32.26
2023-09-08T15:52:15.748Z,32.28
2023-09-08T15:54:44.655Z,32.28
2023-09-08T15:57:12.478Z,32.29
2023-09-08T15:59:40.978Z,32.31
2023-09-08T16:02:09.075Z,32.29
2023-09-08T16:04:37.161Z,32.32
2023-09-08T16:07:05.487Z,32.28
2023-09-08T16:09:33.484Z,32.33
2023-09-08T16:12:01.325Z,32.32
2023-09-08T16:14:29.981Z,32.33
2023-09-08T16:16:57.824Z,32.32
2023-09-08T16:19:25.718Z,32.31
2023-09-08T16:21:53.507Z,32.29
2023-09-08T16:24:21.275Z,32.33
2023-09-08T16:26:49.063Z,32.31
2023-09-08T16:29:16.839Z,32.29
2023-09-08T16:31:44.607Z,32.30
2023-09-08T16:34:12.475Z,32.31
2023-09-08T16:36:40.266Z,32.29
2023-09-08T16:39:08.104Z,32.28
2023-09-08T16:41:35.955Z,32.27
2023-09-08T16:44:03.784Z,32.26
2023-09-08T16:46:31.533Z,32.26
2023-09-08T16:48:59.299Z,32.25
2023-09-08T16:51:27.032Z,32.22
2023-09-08T16:53:54.873Z,32.23
2023-09-08T16:56:22.694Z,32.20
2023-09-08T16:58:51.268Z,32.18
2023-09-08T17:01:19.055Z,32.16
2023-09-08T17:03:46.961Z,32.14
2023-09-08T17:06:14.899Z,32.09
2023-09-08T17:08:42.727Z,32.08
2023-09-08T17:11:11.483Z,32.04
2023-09-08T17:13:39.548Z,32.00
2023-09-08T17:16:07.506Z,31.96
2023-09-08T17:18:35.435Z,31.91
2023-09-08T17:21:03.611Z,31.86
2023-09-08T17:23:31.496Z,31.78
2023-09-08T17:25:59.334Z,31.72
2023-09-08T17:28:27.027Z,31.68
2023-09-08T17:30:54.812Z,31.58
2023-09-08T17:33:22.769Z,31.53
2023-09-08T17:35:50.649Z,31.49
2023-09-08T17:38:18.687Z,31.41
2023-09-08T17:40:46.630Z,31.31
2023-09-08T17:43:14.539Z,31.25
2023-09-08T17:45:42.834Z,31.19
2023-09-08T17:48:10.910Z,31.08
2023-09-08T17:50:38.994Z,31.01
2023-09-08T17:53:07.004Z,30.91
2023-09-08T17:55:34.746Z,30.82
2023-09-08T17:58:02.955Z,30.73
2023-09-08T18:00:30.845Z,30.64
2023-09-08T18:02:58.799Z,30.55
2023-09-08T18:05:27.666Z,30.46
2023-09-08T18:07:55.446Z,30.37
2023-09-08T18:10:23.323Z,30.30
2023-09-08T18:12:51.145Z,30.20
2023-09-08T18:15:18.885Z,30.11
2023-09-08T18:17:48.392Z,30.01
2023-09-08T18:20:16.464Z,29.86
2023-09-08T18:22:44.245Z,29.84
2023-09-08T18:25:12.066Z,29.72
2023-09-08T18:27:39.883Z,29.65
2023-09-08T18:30:08.486Z,29.53
2023-09-08T18:32:36.824Z,29.47
2023-09-08T18:35:05.132Z,29.37
2023-09-08T18:37:33.032Z,29.31
2023-09-08T18:40:00.728Z,29.23
2023-09-08T18:42:29.349Z,29.17
2023-09-08T18:44:57.117Z,29.11
2023-09-08T18:47:24.896Z,29.05
2023-09-08T18:49:52.655Z,28.99
2023-09-08T18:52:20.410Z,28.88
2023-09-08T18:54:48.496Z,28.85
2023-09-08T18:57:16.340Z,28.75
2023-09-08T18:59:44.065Z,28.71
2023-09-08T19:02:11.867Z,28.63
2023-09-08T19:04:39.685Z,28.59
2023-09-08T19:07:07.488Z,28.50
2023-09-08T19:09:35.313Z,28.48
2023-09-08T19:12:04.098Z,28.38
2023-09-08T19:14:32.016Z,28.34
2023-09-08T19:17:01.006Z,28.32
2023-09-08T19:19:28.788Z,28.25
2023-09-08T19:21:57.045Z,28.23
2023-09-08T19:24:25.574Z,28.17
2023-09-08T19:26:53.802Z,28.16
2023-09-08T19:29:21.571Z,28.10
2023-09-08T19:31:49.382Z,28.01
2023-09-08T19:34:17.230Z,27.97
2023-09-08T19:36:44.988Z,27.89
2023-09-08T19:39:12.734Z,27.83
2023-09-08T19:41:40.542Z,27.75
2023-09-08T19:44:08.828Z,27.69
2023-09-08T19:46:39.119Z,27.58
2023-09-08T19:49:07.048Z,27.57
2023-09-08T19:51:34.896Z,27.49
2023-09-08T19:54:03.823Z,27.41
2023-09-08T19:56:31.616Z,27.37
2023-09-08T19:59:01.068Z,27.33
2023-09-08T20:01:30.892Z,27.06
2023-09-08T20:03:58.684Z,27.11
2023-09-08T20:06:27.051Z,27.14
2023-09-08T20:08:54.920Z,27.08
2023-09-08T20:11:22.776Z,27.07
2023-09-08T20:13:50.572Z,27.00
2023-09-08T20:16:18.360Z,26.89
2023-09-08T20:18:46.226Z,26.87
2023-09-08T20:21:13.953Z,26.85
2023-09-08T20:23:41.897Z,26.80
2023-09-08T20:26:09.867Z,26.75
2023-09-08T20:28:37.718Z,26.73
2023-09-08T20:31:16.456Z,26.70
2023-09-08T20:33:46.551Z,26.60
2023-09-08T20:36:18.434Z,26.58
2023-09-08T20:38:46.490Z,26.54
2023-09-08T20:41:14.441Z,26.49
2023-09-08T20:43:42.228Z,26.46
2023-09-08T20:46:10.137Z,26.40
2023-09-08T20:48:39.802Z,26.35
2023-09-08T20:51:10.792Z,26.28
2023-09-08T20:53:41.550Z,26.20
2023-09-08T20:56:11.106Z,26.15
2023-09-08T20:58:41.430Z,26.16
2023-09-08T21:01:10.612Z,26.12
2023-09-08T21:03:39.386Z,26.09
2023-09-08T21:06:08.474Z,26.10
2023-09-08T21:08:36.356Z,26.08
2023-09-08T21:11:04.055Z,26.09
2023-09-08T21:13:31.936Z,26.06
2023-09-08T21:15:59.871Z,26.04
2023-09-08T21:18:27.607Z,26.03
2023-09-08T21:20:55.437Z,26.01
2023-09-08T21:23:23.172Z,25.96
2023-09-08T21:25:51.036Z,25.91
2023-09-08T21:28:18.858Z,25.90
2023-09-08T21:30:46.560Z,25.88
2023-09-08T21:33:14.511Z,25.82
2023-09-08T21:35:42.433Z,25.73
2023-09-08T21:38:10.278Z,25.70
2023-09-08T21:40:40.671Z,25.67
2023-09-08T21:43:08.372Z,25.61
2023-09-08T21:45:36.134Z,25.61
2023-09-08T21:48:04.390Z,25.59
2023-09-08T21:50:32.846Z,25.57
2023-09-08T21:53:00.690Z,25.57
2023-09-08T21:55:28.517Z,25.57
2023-09-08T21:57:56.624Z,25.55
2023-09-08T22:00:26.185Z,25.51
2023-09-08T22:02:54.150Z,25.49
2023-09-08T22:05:22.332Z,25.51
2023-09-08T22:07:50.171Z,25.49
2023-09-08T22:10:18.102Z,25.44
2023-09-08T22:12:46.000Z,25.45
2023-09-08T22:15:13.847Z,25.46
2023-09-08T22:17:41.823Z,25.45
2023-09-08T22:20:16.770Z,25.45
2023-09-08T22:22:45.705Z,25.45
2023-09-08T22:25:13.815Z,25.44
2023-09-08T22:27:41.867Z,25.43
2023-09-08T22:30:10.421Z,25.43
2023-09-08T22:32:38.397Z,25.37
2023-09-08T22:35:06.693Z,25.31
2023-09-08T22:37:35.860Z,25.25
2023-09-08T22:40:07.008Z,25.16
2023-09-08T22:42:35.032Z,25.09
2023-09-08T22:45:03.142Z,25.04
2023-09-08T22:47:31.265Z,24.96
2023-09-08T22:50:06.929Z,24.95
2023-09-08T22:52:35.109Z,24.89
2023-09-08T22:55:17.560Z,24.87
2023-09-08T22:57:51.527Z,24.82
2023-09-08T23:00:19.600Z,24.81
2023-09-08T23:02:48.363Z,24.83
2023-09-08T23:05:16.497Z,24.85
2023-09-08T23:07:45.402Z,24.88
2023-09-08T23:10:13.606Z,24.85
2023-09-08T23:12:42.222Z,24.82
2023-09-08T23:15:10.992Z,24.74
2023-09-08T23:17:39.771Z,24.75
2023-09-08T23:20:16.055Z,24.70
2023-09-08T23:22:44.901Z,24.66
2023-09-08T23:25:13.307Z,24.59
2023-09-08T23:27:41.118Z,24.52
2023-09-08T23:30:10.154Z,24.48
2023-09-08T23:32:38.062Z,24.43
2023-09-08T23:35:08.409Z,24.39
2023-09-08T23:37:36.327Z,24.34
2023-09-08T23:40:08.543Z,24.29
2023-09-08T23:42:36.673Z,24.19
2023-09-08T23:45:05.936Z,24.16
2023-09-08T23:47:34.198Z,24.05
2023-09-08T23:50:02.105Z,24.04
2023-09-08T23:52:29.871Z,23.97
2023-09-08T23:54:57.699Z,23.97
2023-09-08T23:57:25.513Z,23.94
2023-09-08T23:59:53.433Z,23.89
